Historique des stations

Station météo de Droue-sur-Drouette

Altitude de la station : 120m m







Données météorologiques pour le 18/08/2022
Date
Heure
Températures Humidité Point de rosée Vitesse
du vent
Direction Rafales Windchill Pression Pluviométrie
Cumul
Date
Heure
Températures Humidité Point de rosée Vitesse
du vent
Direction Rafales Windchill Pression Pluviométrie
Cumul
18/08/2022 15:2027.6 °C47.7 %15.5 °C9 km/hO21 km/h01014 hPa0.0 mm
18/08/2022 15:0027.2 °C49.2 %15.6 °C8 km/hO18 km/h01014 hPa0.0 mm
18/08/2022 14:5027 °C49.1 %15.3 °C11 km/hO21 km/h01014 hPa0.0 mm
18/08/2022 14:3026.2 °C51.7 %15.5 °C6 km/hONO18 km/h01014 hPa0.0 mm
18/08/2022 14:2025.9 °C52.8 %15.5 °C4 km/h11 km/h01014 hPa0.0 mm
18/08/2022 14:0026 °C56 %16.5 °C5 km/hNO23 km/h01014 hPa0.0 mm
18/08/2022 13:5026.2 °C55.9 %16.7 °C10 km/hO23 km/h01014 hPa0.0 mm
18/08/2022 13:3025.8 °C58.5 %17 °C4 km/hNNO15 km/h01014 hPa0.0 mm
18/08/2022 13:0025.5 °C60.8 %17.3 °C10 km/hO19 km/h01014 hPa0.0 mm
18/08/2022 12:5025.5 °C61.3 %17.5 °C6 km/hO18 km/h01014 hPa0.0 mm
18/08/2022 12:3024.9 °C63 %17.3 °C6 km/hO16 km/h01014 hPa0.0 mm
18/08/2022 12:2024.5 °C64.8 %17.4 °C7 km/hO18 km/h01014 hPa0.0 mm
18/08/2022 12:0023.8 °C66.4 %17.2 °C7 km/hO18 km/h01015 hPa0.0 mm
18/08/2022 11:5023.7 °C66.6 %17.1 °C6 km/hO13 km/h01014 hPa0.0 mm
18/08/2022 11:3023.1 °C68.8 %17 °C3 km/hO13 km/h01015 hPa0.0 mm
18/08/2022 11:2022.6 °C69.1 %16.7 °C5 km/hONO13 km/h01014 hPa0.0 mm
18/08/2022 11:0021.9 °C71.7 %16.6 °C4 km/hONO13 km/h01015 hPa0.0 mm
18/08/2022 10:5021.5 °C72.2 %16.3 °C6 km/hONO13 km/h01014 hPa0.0 mm
18/08/2022 10:3020.9 °C75.1 %16.3 °C3 km/hO10 km/h01014 hPa0.0 mm
18/08/2022 10:2020.6 °C75.6 %16.1 °C3 km/h8 km/h01014 hPa0.0 mm
18/08/2022 10:1020.2 °C76.1 %15.9 °C2 km/hN6 km/h01015 hPa0.0 mm
18/08/2022 09:5019.4 °C78.9 %15.6 °C1 km/hNNE6 km/h01014 hPa0.0 mm
18/08/2022 09:3018.3 °C81.9 %15.1 °C2 km/hNNO6 km/h01014 hPa0.0 mm
18/08/2022 09:2017.9 °C82.2 %14.8 °C1 km/hNNE6 km/h01014 hPa0.0 mm
18/08/2022 09:0016.9 °C86 %14.6 °C3 km/hONO6 km/h01014 hPa0.0 mm
18/08/2022 08:2015.1 °C91.5 %13.7 °C3 km/hONO6 km/h01014 hPa0.0 mm
18/08/2022 08:0013.9 °C95.2 %13.1 °C-NNO3 km/h01014 hPa0.0 mm
18/08/2022 07:5013.3 °C96 %12.7 °C1 km/hONO3 km/h01014 hPa0.0 mm
18/08/2022 07:2012.8 °C95.1 %12 °C1 km/hONO3 km/h01014 hPa0.0 mm
18/08/2022 05:2013.6 °C93.8 %12.6 °C1 km/hNE3 km/h01014 hPa0.0 mm
18/08/2022 04:5013.9 °C93.5 %12.8 °C-ONO3 km/h01014 hPa0.0 mm
18/08/2022 04:2014.2 °C92.9 %13 °C2 km/hNO5 km/h01014 hPa0.0 mm
18/08/2022 03:0014.9 °C92.4 %13.7 °C1 km/hONO6 km/h01014 hPa0.0 mm
18/08/2022 02:2015.1 °C93.1 %14 °C-ONO3 km/h01013 hPa0.0 mm
18/08/2022 01:5015.2 °C92.1 %13.9 °C-NO3 km/h01013 hPa2.2 mm
18/08/2022 00:0016.8 °C86.9 %14.6 °C1 km/hN3 km/h01013 hPa2.2 mm


Minima :

Température : 12.8 °C
Humidité : 47.7 %
Point de rosée : 12 °C
Vent moyen : 1 km/h
Windchill : 0
Pression atm. : 1013 hPa
Maxima :

Température : 27.6 °C
Humidité : 96 %
Point de rosée : 17.5 °C
Vent moyen : 11 km/h
Windchill : 0
Pression atm. : 1015 hPa
Rafales max : 23 km/h
Cumul de pluie sur 24H : 2.2 mm

Droue-sur-drouette est une commune du département Eure-et-Loir (28).
La station météorologique du réseau de l'association la plus proche de Droue-sur-Drouette est celle de Maintenon
Site du propriétaire de la station : https://meteo.neel.ch/



Icône Facebook Association Météo Centre Icône Twitter Association Météo Centre Icône Chaîne Youtube Association Météo Centre Icône contact Association Météo Centre Icône Insta Association Météo Centre